sensor_id;sensor_type;location;lat;lon;timestamp;P1;durP1;ratioP1;P2;durP2;ratioP2
42430;SDS011;71905;47.466;19.024;2023-11-19T00:00:19;11.23;;;6.22;;
42430;SDS011;71905;47.466;19.024;2023-11-19T00:02:48;8.20;;;5.32;;
42430;SDS011;71905;47.466;19.024;2023-11-19T00:05:16;9.35;;;6.25;;
42430;SDS011;71905;47.466;19.024;2023-11-19T00:07:45;10.32;;;6.32;;
42430;SDS011;71905;47.466;19.024;2023-11-19T00:10:13;8.82;;;6.13;;
42430;SDS011;71905;47.466;19.024;2023-11-19T00:12:46;10.82;;;6.22;;
42430;SDS011;71905;47.466;19.024;2023-11-19T00:15:17;10.00;;;6.20;;
42430;SDS011;71905;47.466;19.024;2023-11-19T00:17:46;9.90;;;5.93;;
42430;SDS011;71905;47.466;19.024;2023-11-19T00:20:16;9.40;;;5.82;;
42430;SDS011;71905;47.466;19.024;2023-11-19T00:22:45;8.10;;;5.63;;
42430;SDS011;71905;47.466;19.024;2023-11-19T00:25:16;6.90;;;4.78;;
42430;SDS011;71905;47.466;19.024;2023-11-19T00:27:44;10.27;;;6.65;;
42430;SDS011;71905;47.466;19.024;2023-11-19T00:30:13;10.35;;;6.80;;
42430;SDS011;71905;47.466;19.024;2023-11-19T00:32:43;9.63;;;6.68;;
42430;SDS011;71905;47.466;19.024;2023-11-19T00:35:12;12.70;;;7.30;;
42430;SDS011;71905;47.466;19.024;2023-11-19T00:37:41;11.40;;;7.88;;
42430;SDS011;71905;47.466;19.024;2023-11-19T00:40:12;12.82;;;7.15;;
42430;SDS011;71905;47.466;19.024;2023-11-19T00:42:42;17.42;;;8.27;;
42430;SDS011;71905;47.466;19.024;2023-11-19T00:45:11;12.90;;;8.48;;
42430;SDS011;71905;47.466;19.024;2023-11-19T00:47:40;11.40;;;7.53;;
42430;SDS011;71905;47.466;19.024;2023-11-19T00:50:10;12.93;;;7.75;;
42430;SDS011;71905;47.466;19.024;2023-11-19T00:52:39;13.10;;;7.55;;
42430;SDS011;71905;47.466;19.024;2023-11-19T00:55:08;12.30;;;7.70;;
42430;SDS011;71905;47.466;19.024;2023-11-19T00:57:36;13.00;;;7.88;;
42430;SDS011;71905;47.466;19.024;2023-11-19T01:00:05;12.40;;;7.47;;
42430;SDS011;71905;47.466;19.024;2023-11-19T01:02:45;13.13;;;8.18;;
42430;SDS011;71905;47.466;19.024;2023-11-19T01:05:18;12.38;;;7.30;;
42430;SDS011;71905;47.466;19.024;2023-11-19T01:07:50;12.73;;;7.85;;
42430;SDS011;71905;47.466;19.024;2023-11-19T01:10:21;12.68;;;7.53;;
42430;SDS011;71905;47.466;19.024;2023-11-19T01:12:49;11.52;;;7.88;;
42430;SDS011;71905;47.466;19.024;2023-11-19T01:15:17;12.52;;;8.55;;
42430;SDS011;71905;47.466;19.024;2023-11-19T01:17:46;14.40;;;8.20;;
42430;SDS011;71905;47.466;19.024;2023-11-19T01:20:18;13.73;;;8.52;;
42430;SDS011;71905;47.466;19.024;2023-11-19T01:22:47;16.05;;;8.70;;
42430;SDS011;71905;47.466;19.024;2023-11-19T01:25:16;16.65;;;9.02;;
42430;SDS011;71905;47.466;19.024;2023-11-19T01:27:45;14.75;;;8.82;;
42430;SDS011;71905;47.466;19.024;2023-11-19T01:30:13;16.00;;;8.82;;
42430;SDS011;71905;47.466;19.024;2023-11-19T01:32:41;14.07;;;8.93;;
42430;SDS011;71905;47.466;19.024;2023-11-19T01:35:09;13.98;;;8.77;;
42430;SDS011;71905;47.466;19.024;2023-11-19T01:37:39;13.65;;;8.93;;
42430;SDS011;71905;47.466;19.024;2023-11-19T01:40:07;14.90;;;8.80;;
42430;SDS011;71905;47.466;19.024;2023-11-19T01:42:38;14.88;;;9.30;;
42430;SDS011;71905;47.466;19.024;2023-11-19T01:45:07;14.82;;;8.98;;
42430;SDS011;71905;47.466;19.024;2023-11-19T01:47:37;12.38;;;8.25;;
42430;SDS011;71905;47.466;19.024;2023-11-19T01:50:06;13.55;;;8.70;;
42430;SDS011;71905;47.466;19.024;2023-11-19T01:52:35;13.75;;;8.20;;
42430;SDS011;71905;47.466;19.024;2023-11-19T01:55:06;13.45;;;8.65;;
42430;SDS011;71905;47.466;19.024;2023-11-19T01:57:35;12.48;;;8.18;;
42430;SDS011;71905;47.466;19.024;2023-11-19T02:00:07;12.93;;;8.25;;
42430;SDS011;71905;47.466;19.024;2023-11-19T02:02:39;13.68;;;8.55;;
42430;SDS011;71905;47.466;19.024;2023-11-19T02:05:08;14.05;;;8.40;;
42430;SDS011;71905;47.466;19.024;2023-11-19T02:07:36;13.00;;;8.50;;
42430;SDS011;71905;47.466;19.024;2023-11-19T02:10:06;12.82;;;8.35;;
42430;SDS011;71905;47.466;19.024;2023-11-19T02:12:39;13.73;;;9.07;;
42430;SDS011;71905;47.466;19.024;2023-11-19T02:15:09;14.93;;;8.32;;
42430;SDS011;71905;47.466;19.024;2023-11-19T02:17:37;15.02;;;8.65;;
42430;SDS011;71905;47.466;19.024;2023-11-19T02:20:06;14.80;;;9.00;;
42430;SDS011;71905;47.466;19.024;2023-11-19T02:22:36;13.98;;;8.68;;
42430;SDS011;71905;47.466;19.024;2023-11-19T02:25:06;16.90;;;9.25;;
42430;SDS011;71905;47.466;19.024;2023-11-19T02:27:44;16.85;;;8.75;;
42430;SDS011;71905;47.466;19.024;2023-11-19T02:30:18;19.52;;;9.88;;
42430;SDS011;71905;47.466;19.024;2023-11-19T02:32:46;17.95;;;9.48;;
42430;SDS011;71905;47.466;19.024;2023-11-19T02:35:15;19.77;;;9.98;;
42430;SDS011;71905;47.466;19.024;2023-11-19T02:37:43;18.88;;;9.35;;
42430;SDS011;71905;47.466;19.024;2023-11-19T02:40:11;17.08;;;9.30;;
42430;SDS011;71905;47.466;19.024;2023-11-19T02:42:40;13.52;;;8.93;;
42430;SDS011;71905;47.466;19.024;2023-11-19T02:45:09;14.68;;;8.77;;
42430;SDS011;71905;47.466;19.024;2023-11-19T02:47:41;14.05;;;9.60;;
42430;SDS011;71905;47.466;19.024;2023-11-19T02:50:10;17.23;;;9.80;;
42430;SDS011;71905;47.466;19.024;2023-11-19T02:52:41;17.35;;;9.30;;
42430;SDS011;71905;47.466;19.024;2023-11-19T02:55:09;14.98;;;9.40;;
42430;SDS011;71905;47.466;19.024;2023-11-19T02:57:39;17.02;;;9.88;;
42430;SDS011;71905;47.466;19.024;2023-11-19T03:00:14;17.05;;;9.40;;
42430;SDS011;71905;47.466;19.024;2023-11-19T03:02:44;15.93;;;9.23;;
42430;SDS011;71905;47.466;19.024;2023-11-19T03:05:14;17.42;;;9.00;;
42430;SDS011;71905;47.466;19.024;2023-11-19T03:07:43;12.95;;;8.43;;
42430;SDS011;71905;47.466;19.024;2023-11-19T03:10:11;14.18;;;8.55;;
42430;SDS011;71905;47.466;19.024;2023-11-19T03:12:40;15.85;;;9.65;;
42430;SDS011;71905;47.466;19.024;2023-11-19T03:15:08;13.82;;;8.98;;
42430;SDS011;71905;47.466;19.024;2023-11-19T03:17:39;14.15;;;9.00;;
42430;SDS011;71905;47.466;19.024;2023-11-19T03:20:09;18.55;;;9.40;;
42430;SDS011;71905;47.466;19.024;2023-11-19T03:22:41;14.10;;;9.18;;
42430;SDS011;71905;47.466;19.024;2023-11-19T03:25:10;15.35;;;9.02;;
42430;SDS011;71905;47.466;19.024;2023-11-19T03:27:39;15.45;;;9.40;;
42430;SDS011;71905;47.466;19.024;2023-11-19T03:30:09;15.68;;;9.57;;
42430;SDS011;71905;47.466;19.024;2023-11-19T03:32:39;15.30;;;9.82;;
42430;SDS011;71905;47.466;19.024;2023-11-19T03:35:08;14.90;;;9.75;;
42430;SDS011;71905;47.466;19.024;2023-11-19T03:37:37;15.00;;;9.73;;
42430;SDS011;71905;47.466;19.024;2023-11-19T03:40:06;14.48;;;9.20;;
42430;SDS011;71905;47.466;19.024;2023-11-19T03:42:35;18.02;;;9.05;;
42430;SDS011;71905;47.466;19.024;2023-11-19T03:45:03;14.63;;;9.23;;
42430;SDS011;71905;47.466;19.024;2023-11-19T03:47:31;16.25;;;9.80;;
42430;SDS011;71905;47.466;19.024;2023-11-19T03:50:01;16.38;;;9.65;;
42430;SDS011;71905;47.466;19.024;2023-11-19T03:52:29;16.15;;;9.88;;
42430;SDS011;71905;47.466;19.024;2023-11-19T03:55:09;17.42;;;9.95;;
42430;SDS011;71905;47.466;19.024;2023-11-19T03:57:39;15.48;;;9.70;;
42430;SDS011;71905;47.466;19.024;2023-11-19T04:00:07;20.20;;;10.27;;
42430;SDS011;71905;47.466;19.024;2023-11-19T04:02:39;16.88;;;9.80;;
42430;SDS011;71905;47.466;19.024;2023-11-19T04:05:09;17.27;;;9.57;;
42430;SDS011;71905;47.466;19.024;2023-11-19T04:07:37;19.48;;;10.98;;
42430;SDS011;71905;47.466;19.024;2023-11-19T04:10:05;17.15;;;9.77;;
42430;SDS011;71905;47.466;19.024;2023-11-19T04:12:34;17.10;;;9.90;;
42430;SDS011;71905;47.466;19.024;2023-11-19T04:15:03;14.52;;;9.35;;
42430;SDS011;71905;47.466;19.024;2023-11-19T04:17:32;16.70;;;10.00;;
42430;SDS011;71905;47.466;19.024;2023-11-19T04:20:00;15.07;;;9.38;;
42430;SDS011;71905;47.466;19.024;2023-11-19T04:22:32;14.30;;;9.20;;
42430;SDS011;71905;47.466;19.024;2023-11-19T04:25:00;14.40;;;8.88;;
42430;SDS011;71905;47.466;19.024;2023-11-19T04:27:28;15.55;;;9.52;;
42430;SDS011;71905;47.466;19.024;2023-11-19T04:29:56;16.55;;;8.93;;
42430;SDS011;71905;47.466;19.024;2023-11-19T04:32:24;16.90;;;9.30;;
42430;SDS011;71905;47.466;19.024;2023-11-19T04:34:53;16.95;;;9.63;;
42430;SDS011;71905;47.466;19.024;2023-11-19T04:37:21;16.42;;;9.02;;
42430;SDS011;71905;47.466;19.024;2023-11-19T04:39:51;16.58;;;9.15;;
42430;SDS011;71905;47.466;19.024;2023-11-19T04:42:19;14.93;;;9.07;;
42430;SDS011;71905;47.466;19.024;2023-11-19T04:44:49;15.23;;;9.25;;
42430;SDS011;71905;47.466;19.024;2023-11-19T04:47:17;14.10;;;8.93;;
42430;SDS011;71905;47.466;19.024;2023-11-19T04:49:45;15.90;;;9.20;;
42430;SDS011;71905;47.466;19.024;2023-11-19T04:52:13;15.13;;;9.07;;
42430;SDS011;71905;47.466;19.024;2023-11-19T04:54:41;14.75;;;8.70;;
42430;SDS011;71905;47.466;19.024;2023-11-19T04:57:11;13.05;;;8.57;;
42430;SDS011;71905;47.466;19.024;2023-11-19T04:59:39;14.23;;;8.93;;
42430;SDS011;71905;47.466;19.024;2023-11-19T05:02:08;14.98;;;9.00;;
42430;SDS011;71905;47.466;19.024;2023-11-19T05:07:24;14.40;;;9.15;;
42430;SDS011;71905;47.466;19.024;2023-11-19T05:09:52;13.38;;;8.32;;
42430;SDS011;71905;47.466;19.024;2023-11-19T05:12:21;13.95;;;8.00;;
42430;SDS011;71905;47.466;19.024;2023-11-19T05:14:50;16.25;;;8.32;;
42430;SDS011;71905;47.466;19.024;2023-11-19T05:17:18;15.27;;;8.65;;
42430;SDS011;71905;47.466;19.024;2023-11-19T05:19:47;13.25;;;8.38;;
42430;SDS011;71905;47.466;19.024;2023-11-19T05:22:15;13.75;;;8.52;;
42430;SDS011;71905;47.466;19.024;2023-11-19T05:24:43;13.88;;;8.80;;
42430;SDS011;71905;47.466;19.024;2023-11-19T05:27:11;15.07;;;8.10;;
42430;SDS011;71905;47.466;19.024;2023-11-19T05:29:41;15.00;;;8.85;;
42430;SDS011;71905;47.466;19.024;2023-11-19T05:32:10;14.02;;;8.50;;
42430;SDS011;71905;47.466;19.024;2023-11-19T05:34:38;14.98;;;8.88;;
42430;SDS011;71905;47.466;19.024;2023-11-19T05:37:18;13.57;;;8.38;;
42430;SDS011;71905;47.466;19.024;2023-11-19T05:39:46;18.33;;;11.20;;
42430;SDS011;71905;47.466;19.024;2023-11-19T05:42:14;14.75;;;8.80;;
42430;SDS011;71905;47.466;19.024;2023-11-19T05:44:43;20.55;;;9.70;;
42430;SDS011;71905;47.466;19.024;2023-11-19T05:47:11;19.23;;;9.65;;
42430;SDS011;71905;47.466;19.024;2023-11-19T05:49:40;16.63;;;9.32;;
42430;SDS011;71905;47.466;19.024;2023-11-19T05:52:07;13.85;;;8.80;;
42430;SDS011;71905;47.466;19.024;2023-11-19T05:54:37;15.77;;;9.80;;
42430;SDS011;71905;47.466;19.024;2023-11-19T05:57:05;19.77;;;10.02;;
42430;SDS011;71905;47.466;19.024;2023-11-19T05:59:36;16.13;;;10.10;;
42430;SDS011;71905;47.466;19.024;2023-11-19T06:02:05;13.77;;;9.43;;
42430;SDS011;71905;47.466;19.024;2023-11-19T06:04:33;16.35;;;9.20;;
42430;SDS011;71905;47.466;19.024;2023-11-19T06:07:01;15.15;;;9.15;;
42430;SDS011;71905;47.466;19.024;2023-11-19T06:09:29;14.65;;;9.18;;
42430;SDS011;71905;47.466;19.024;2023-11-19T06:12:00;17.65;;;9.38;;
42430;SDS011;71905;47.466;19.024;2023-11-19T06:14:28;16.98;;;10.05;;
42430;SDS011;71905;47.466;19.024;2023-11-19T06:16:56;16.63;;;10.88;;
42430;SDS011;71905;47.466;19.024;2023-11-19T06:19:25;14.93;;;9.13;;
42430;SDS011;71905;47.466;19.024;2023-11-19T06:21:56;14.15;;;9.10;;
42430;SDS011;71905;47.466;19.024;2023-11-19T06:24:24;16.38;;;9.10;;
42430;SDS011;71905;47.466;19.024;2023-11-19T06:26:52;16.00;;;9.75;;
42430;SDS011;71905;47.466;19.024;2023-11-19T06:29:20;17.42;;;10.13;;
42430;SDS011;71905;47.466;19.024;2023-11-19T06:31:48;19.70;;;11.02;;
42430;SDS011;71905;47.466;19.024;2023-11-19T06:34:16;20.23;;;9.85;;
42430;SDS011;71905;47.466;19.024;2023-11-19T06:36:46;17.40;;;10.27;;
42430;SDS011;71905;47.466;19.024;2023-11-19T06:39:15;19.52;;;10.18;;
42430;SDS011;71905;47.466;19.024;2023-11-19T06:41:44;16.92;;;9.82;;
42430;SDS011;71905;47.466;19.024;2023-11-19T06:44:12;21.38;;;10.65;;
42430;SDS011;71905;47.466;19.024;2023-11-19T06:46:40;23.80;;;11.70;;
42430;SDS011;71905;47.466;19.024;2023-11-19T06:49:09;17.90;;;9.85;;
42430;SDS011;71905;47.466;19.024;2023-11-19T06:51:41;17.25;;;10.98;;
42430;SDS011;71905;47.466;19.024;2023-11-19T06:54:10;18.50;;;10.98;;
42430;SDS011;71905;47.466;19.024;2023-11-19T06:56:38;20.00;;;11.15;;
42430;SDS011;71905;47.466;19.024;2023-11-19T06:59:06;19.92;;;11.82;;
42430;SDS011;71905;47.466;19.024;2023-11-19T07:01:34;21.05;;;12.38;;
42430;SDS011;71905;47.466;19.024;2023-11-19T07:04:03;18.13;;;11.55;;
42430;SDS011;71905;47.466;19.024;2023-11-19T07:06:35;20.48;;;12.23;;
42430;SDS011;71905;47.466;19.024;2023-11-19T07:09:04;21.08;;;13.07;;
42430;SDS011;71905;47.466;19.024;2023-11-19T07:11:38;21.80;;;13.43;;
42430;SDS011;71905;47.466;19.024;2023-11-19T07:14:06;21.02;;;13.10;;
42430;SDS011;71905;47.466;19.024;2023-11-19T07:16:35;21.65;;;12.77;;
42430;SDS011;71905;47.466;19.024;2023-11-19T07:19:05;21.13;;;12.75;;
42430;SDS011;71905;47.466;19.024;2023-11-19T07:21:33;19.75;;;12.63;;
42430;SDS011;71905;47.466;19.024;2023-11-19T07:24:02;19.80;;;12.60;;
42430;SDS011;71905;47.466;19.024;2023-11-19T07:26:30;21.85;;;14.00;;
42430;SDS011;71905;47.466;19.024;2023-11-19T07:28:59;22.65;;;13.30;;
42430;SDS011;71905;47.466;19.024;2023-11-19T07:31:28;24.63;;;15.18;;
42430;SDS011;71905;47.466;19.024;2023-11-19T07:33:56;24.98;;;14.68;;
42430;SDS011;71905;47.466;19.024;2023-11-19T07:36:24;23.23;;;14.43;;
42430;SDS011;71905;47.466;19.024;2023-11-19T07:38:52;25.48;;;14.95;;
42430;SDS011;71905;47.466;19.024;2023-11-19T07:41:24;28.00;;;15.38;;
42430;SDS011;71905;47.466;19.024;2023-11-19T07:43:52;25.52;;;15.93;;
42430;SDS011;71905;47.466;19.024;2023-11-19T07:46:22;21.90;;;13.63;;
42430;SDS011;71905;47.466;19.024;2023-11-19T07:48:51;22.05;;;13.63;;
42430;SDS011;71905;47.466;19.024;2023-11-19T07:51:19;25.42;;;16.08;;
42430;SDS011;71905;47.466;19.024;2023-11-19T07:53:48;26.33;;;16.75;;
42430;SDS011;71905;47.466;19.024;2023-11-19T07:56:16;25.88;;;15.75;;
42430;SDS011;71905;47.466;19.024;2023-11-19T07:58:44;27.92;;;16.42;;
42430;SDS011;71905;47.466;19.024;2023-11-19T08:01:12;26.10;;;16.58;;
42430;SDS011;71905;47.466;19.024;2023-11-19T08:03:44;23.08;;;14.93;;
42430;SDS011;71905;47.466;19.024;2023-11-19T08:06:15;25.92;;;15.65;;
42430;SDS011;71905;47.466;19.024;2023-11-19T08:08:43;25.73;;;15.27;;
42430;SDS011;71905;47.466;19.024;2023-11-19T08:11:11;26.73;;;16.70;;
42430;SDS011;71905;47.466;19.024;2023-11-19T08:13:39;23.85;;;15.50;;
42430;SDS011;71905;47.466;19.024;2023-11-19T08:16:07;23.58;;;16.02;;
42430;SDS011;71905;47.466;19.024;2023-11-19T08:18:36;23.92;;;15.73;;
42430;SDS011;71905;47.466;19.024;2023-11-19T08:21:05;24.70;;;16.30;;
42430;SDS011;71905;47.466;19.024;2023-11-19T08:23:33;28.65;;;18.52;;
42430;SDS011;71905;47.466;19.024;2023-11-19T08:26:01;29.65;;;17.73;;
42430;SDS011;71905;47.466;19.024;2023-11-19T08:28:31;26.95;;;17.52;;
42430;SDS011;71905;47.466;19.024;2023-11-19T08:31:01;26.92;;;17.25;;
42430;SDS011;71905;47.466;19.024;2023-11-19T08:33:31;27.52;;;18.25;;
42430;SDS011;71905;47.466;19.024;2023-11-19T08:35:58;30.35;;;18.85;;
42430;SDS011;71905;47.466;19.024;2023-11-19T08:38:28;29.73;;;19.02;;
42430;SDS011;71905;47.466;19.024;2023-11-19T08:40:57;28.23;;;18.67;;
42430;SDS011;71905;47.466;19.024;2023-11-19T08:43:27;27.67;;;17.38;;
42430;SDS011;71905;47.466;19.024;2023-11-19T08:45:54;31.60;;;18.92;;
42430;SDS011;71905;47.466;19.024;2023-11-19T08:48:22;27.80;;;18.52;;
42430;SDS011;71905;47.466;19.024;2023-11-19T08:50:50;27.38;;;17.20;;
42430;SDS011;71905;47.466;19.024;2023-11-19T08:53:18;29.77;;;18.92;;
42430;SDS011;71905;47.466;19.024;2023-11-19T08:55:48;25.75;;;17.58;;
42430;SDS011;71905;47.466;19.024;2023-11-19T08:58:16;25.17;;;16.60;;
42430;SDS011;71905;47.466;19.024;2023-11-19T09:00:45;26.52;;;17.48;;
42430;SDS011;71905;47.466;19.024;2023-11-19T09:03:13;28.23;;;18.08;;
42430;SDS011;71905;47.466;19.024;2023-11-19T09:05:41;25.92;;;16.50;;
42430;SDS011;71905;47.466;19.024;2023-11-19T09:08:09;25.50;;;16.15;;
42430;SDS011;71905;47.466;19.024;2023-11-19T09:10:38;22.40;;;14.75;;
42430;SDS011;71905;47.466;19.024;2023-11-19T09:13:07;23.90;;;15.32;;
42430;SDS011;71905;47.466;19.024;2023-11-19T09:15:35;21.70;;;13.77;;
42430;SDS011;71905;47.466;19.024;2023-11-19T09:18:03;22.80;;;14.63;;
42430;SDS011;71905;47.466;19.024;2023-11-19T09:20:31;23.20;;;15.27;;
42430;SDS011;71905;47.466;19.024;2023-11-19T09:23:05;24.90;;;14.87;;
42430;SDS011;71905;47.466;19.024;2023-11-19T09:25:33;23.33;;;14.80;;
42430;SDS011;71905;47.466;19.024;2023-11-19T09:28:04;26.00;;;15.43;;
42430;SDS011;71905;47.466;19.024;2023-11-19T09:30:33;23.60;;;15.48;;
42430;SDS011;71905;47.466;19.024;2023-11-19T09:33:01;23.63;;;14.77;;
42430;SDS011;71905;47.466;19.024;2023-11-19T09:35:29;20.98;;;14.90;;
42430;SDS011;71905;47.466;19.024;2023-11-19T09:37:57;25.40;;;15.95;;
42430;SDS011;71905;47.466;19.024;2023-11-19T09:40:27;20.50;;;14.25;;
42430;SDS011;71905;47.466;19.024;2023-11-19T09:42:58;21.33;;;13.55;;
42430;SDS011;71905;47.466;19.024;2023-11-19T09:45:27;18.48;;;13.40;;
42430;SDS011;71905;47.466;19.024;2023-11-19T09:47:57;20.67;;;13.60;;
42430;SDS011;71905;47.466;19.024;2023-11-19T09:50:28;21.95;;;13.52;;
42430;SDS011;71905;47.466;19.024;2023-11-19T09:52:56;20.15;;;12.88;;
42430;SDS011;71905;47.466;19.024;2023-11-19T09:55:24;21.77;;;13.50;;
42430;SDS011;71905;47.466;19.024;2023-11-19T09:57:52;20.83;;;14.25;;
42430;SDS011;71905;47.466;19.024;2023-11-19T10:00:20;21.63;;;14.50;;
42430;SDS011;71905;47.466;19.024;2023-11-19T10:02:48;21.67;;;13.82;;
42430;SDS011;71905;47.466;19.024;2023-11-19T10:05:19;20.90;;;13.88;;
42430;SDS011;71905;47.466;19.024;2023-11-19T10:07:49;20.85;;;14.57;;
42430;SDS011;71905;47.466;19.024;2023-11-19T10:10:17;21.27;;;14.35;;
42430;SDS011;71905;47.466;19.024;2023-11-19T10:12:46;22.30;;;14.68;;
42430;SDS011;71905;47.466;19.024;2023-11-19T10:15:21;24.83;;;14.40;;
42430;SDS011;71905;47.466;19.024;2023-11-19T10:17:54;23.38;;;15.52;;
42430;SDS011;71905;47.466;19.024;2023-11-19T10:20:24;28.05;;;16.15;;
42430;SDS011;71905;47.466;19.024;2023-11-19T10:22:52;22.77;;;15.38;;
42430;SDS011;71905;47.466;19.024;2023-11-19T10:25:21;24.88;;;15.75;;
42430;SDS011;71905;47.466;19.024;2023-11-19T10:27:50;21.63;;;14.85;;
42430;SDS011;71905;47.466;19.024;2023-11-19T10:30:19;20.92;;;13.98;;
42430;SDS011;71905;47.466;19.024;2023-11-19T10:33:02;26.90;;;16.80;;
42430;SDS011;71905;47.466;19.024;2023-11-19T10:35:32;23.52;;;14.35;;
42430;SDS011;71905;47.466;19.024;2023-11-19T10:38:01;24.77;;;14.95;;
42430;SDS011;71905;47.466;19.024;2023-11-19T10:40:40;25.35;;;15.40;;
42430;SDS011;71905;47.466;19.024;2023-11-19T10:43:08;23.38;;;14.93;;
42430;SDS011;71905;47.466;19.024;2023-11-19T10:45:37;25.20;;;15.55;;
42430;SDS011;71905;47.466;19.024;2023-11-19T10:48:06;25.08;;;15.60;;
42430;SDS011;71905;47.466;19.024;2023-11-19T10:50:37;22.60;;;15.30;;
42430;SDS011;71905;47.466;19.024;2023-11-19T10:53:06;23.85;;;15.85;;
42430;SDS011;71905;47.466;19.024;2023-11-19T10:55:36;30.20;;;17.23;;
42430;SDS011;71905;47.466;19.024;2023-11-19T10:58:06;23.63;;;16.25;;
42430;SDS011;71905;47.466;19.024;2023-11-19T11:00:37;23.05;;;14.90;;
42430;SDS011;71905;47.466;19.024;2023-11-19T11:03:09;21.52;;;14.63;;
42430;SDS011;71905;47.466;19.024;2023-11-19T11:05:40;23.00;;;15.57;;
42430;SDS011;71905;47.466;19.024;2023-11-19T11:08:08;24.20;;;15.50;;
42430;SDS011;71905;47.466;19.024;2023-11-19T11:10:39;21.95;;;14.40;;
42430;SDS011;71905;47.466;19.024;2023-11-19T11:13:13;21.85;;;15.00;;
42430;SDS011;71905;47.466;19.024;2023-11-19T11:15:41;22.20;;;15.32;;
42430;SDS011;71905;47.466;19.024;2023-11-19T11:18:10;24.40;;;15.68;;
42430;SDS011;71905;47.466;19.024;2023-11-19T11:20:38;26.52;;;16.75;;
42430;SDS011;71905;47.466;19.024;2023-11-19T11:23:23;24.40;;;16.45;;
42430;SDS011;71905;47.466;19.024;2023-11-19T11:26:25;26.55;;;17.90;;
42430;SDS011;71905;47.466;19.024;2023-11-19T11:29:03;23.95;;;15.82;;
42430;SDS011;71905;47.466;19.024;2023-11-19T11:31:38;28.63;;;16.33;;
42430;SDS011;71905;47.466;19.024;2023-11-19T11:34:21;26.85;;;16.75;;
42430;SDS011;71905;47.466;19.024;2023-11-19T11:37:18;23.35;;;15.60;;
42430;SDS011;71905;47.466;19.024;2023-11-19T11:39:51;21.98;;;14.35;;
42430;SDS011;71905;47.466;19.024;2023-11-19T11:42:33;24.83;;;15.85;;
42430;SDS011;71905;47.466;19.024;2023-11-19T11:45:02;22.33;;;15.55;;
42430;SDS011;71905;47.466;19.024;2023-11-19T11:50:50;22.42;;;14.70;;
42430;SDS011;71905;47.466;19.024;2023-11-19T11:53:21;26.17;;;16.40;;
42430;SDS011;71905;47.466;19.024;2023-11-19T11:55:58;23.05;;;15.68;;
42430;SDS011;71905;47.466;19.024;2023-11-19T11:58:30;24.65;;;15.88;;
42430;SDS011;71905;47.466;19.024;2023-11-19T12:01:05;23.70;;;16.40;;
42430;SDS011;71905;47.466;19.024;2023-11-19T12:03:33;23.55;;;16.25;;
42430;SDS011;71905;47.466;19.024;2023-11-19T12:06:02;22.90;;;15.77;;
42430;SDS011;71905;47.466;19.024;2023-11-19T12:08:30;23.90;;;16.00;;
42430;SDS011;71905;47.466;19.024;2023-11-19T12:11:00;27.75;;;17.02;;
42430;SDS011;71905;47.466;19.024;2023-11-19T12:13:44;24.13;;;16.25;;
42430;SDS011;71905;47.466;19.024;2023-11-19T12:16:16;22.48;;;15.70;;
42430;SDS011;71905;47.466;19.024;2023-11-19T12:18:44;24.45;;;16.33;;
42430;SDS011;71905;47.466;19.024;2023-11-19T12:21:26;24.75;;;14.75;;
42430;SDS011;71905;47.466;19.024;2023-11-19T12:23:55;19.70;;;14.32;;
42430;SDS011;71905;47.466;19.024;2023-11-19T12:26:33;22.55;;;14.60;;
42430;SDS011;71905;47.466;19.024;2023-11-19T12:29:01;21.02;;;14.45;;
42430;SDS011;71905;47.466;19.024;2023-11-19T12:31:35;20.40;;;14.15;;
42430;SDS011;71905;47.466;19.024;2023-11-19T12:34:14;21.23;;;14.82;;
42430;SDS011;71905;47.466;19.024;2023-11-19T12:36:42;22.55;;;14.85;;
42430;SDS011;71905;47.466;19.024;2023-11-19T12:39:10;23.73;;;16.02;;
42430;SDS011;71905;47.466;19.024;2023-11-19T12:41:52;21.23;;;14.10;;
42430;SDS011;71905;47.466;19.024;2023-11-19T12:44:21;22.98;;;14.30;;
42430;SDS011;71905;47.466;19.024;2023-11-19T12:46:59;21.10;;;14.27;;
42430;SDS011;71905;47.466;19.024;2023-11-19T12:49:28;19.23;;;13.90;;
42430;SDS011;71905;47.466;19.024;2023-11-19T12:51:56;21.42;;;14.15;;
42430;SDS011;71905;47.466;19.024;2023-11-19T12:54:34;20.60;;;13.77;;
42430;SDS011;71905;47.466;19.024;2023-11-19T12:57:04;19.35;;;13.77;;
42430;SDS011;71905;47.466;19.024;2023-11-19T12:59:33;16.63;;;12.43;;
42430;SDS011;71905;47.466;19.024;2023-11-19T13:02:01;19.75;;;13.55;;
42430;SDS011;71905;47.466;19.024;2023-11-19T13:04:32;21.23;;;13.88;;
42430;SDS011;71905;47.466;19.024;2023-11-19T13:07:01;23.30;;;13.88;;
42430;SDS011;71905;47.466;19.024;2023-11-19T13:09:31;20.48;;;13.00;;
42430;SDS011;71905;47.466;19.024;2023-11-19T13:12:11;18.13;;;12.55;;
42430;SDS011;71905;47.466;19.024;2023-11-19T13:14:43;20.48;;;11.88;;
42430;SDS011;71905;47.466;19.024;2023-11-19T13:17:13;17.13;;;11.43;;
42430;SDS011;71905;47.466;19.024;2023-11-19T13:19:42;17.17;;;11.77;;
42430;SDS011;71905;47.466;19.024;2023-11-19T13:22:10;14.88;;;10.82;;
42430;SDS011;71905;47.466;19.024;2023-11-19T13:24:39;16.02;;;11.32;;
42430;SDS011;71905;47.466;19.024;2023-11-19T13:27:09;15.70;;;11.05;;
42430;SDS011;71905;47.466;19.024;2023-11-19T13:29:38;16.23;;;10.98;;
42430;SDS011;71905;47.466;19.024;2023-11-19T13:32:07;17.25;;;11.38;;
42430;SDS011;71905;47.466;19.024;2023-11-19T13:34:35;16.52;;;11.55;;
42430;SDS011;71905;47.466;19.024;2023-11-19T13:37:03;17.13;;;11.57;;
42430;SDS011;71905;47.466;19.024;2023-11-19T13:39:31;17.42;;;11.52;;
42430;SDS011;71905;47.466;19.024;2023-11-19T13:42:00;19.20;;;11.40;;
42430;SDS011;71905;47.466;19.024;2023-11-19T13:44:31;18.27;;;12.18;;
42430;SDS011;71905;47.466;19.024;2023-11-19T13:47:01;16.13;;;11.73;;
42430;SDS011;71905;47.466;19.024;2023-11-19T13:49:29;20.15;;;12.20;;
42430;SDS011;71905;47.466;19.024;2023-11-19T13:51:58;19.77;;;12.32;;
42430;SDS011;71905;47.466;19.024;2023-11-19T13:54:26;16.25;;;11.05;;
42430;SDS011;71905;47.466;19.024;2023-11-19T13:56:54;16.98;;;12.07;;
42430;SDS011;71905;47.466;19.024;2023-11-19T13:59:24;19.08;;;12.93;;
42430;SDS011;71905;47.466;19.024;2023-11-19T14:01:52;16.83;;;12.48;;
42430;SDS011;71905;47.466;19.024;2023-11-19T14:04:22;18.05;;;11.68;;
42430;SDS011;71905;47.466;19.024;2023-11-19T14:06:50;19.58;;;12.75;;
42430;SDS011;71905;47.466;19.024;2023-11-19T14:09:18;18.42;;;12.93;;
42430;SDS011;71905;47.466;19.024;2023-11-19T14:11:46;18.35;;;12.73;;
42430;SDS011;71905;47.466;19.024;2023-11-19T14:14:17;20.60;;;14.18;;
42430;SDS011;71905;47.466;19.024;2023-11-19T14:16:45;19.58;;;13.07;;
42430;SDS011;71905;47.466;19.024;2023-11-19T14:19:14;19.58;;;12.82;;
42430;SDS011;71905;47.466;19.024;2023-11-19T14:21:43;18.48;;;12.13;;
42430;SDS011;71905;47.466;19.024;2023-11-19T14:24:12;20.85;;;13.25;;
42430;SDS011;71905;47.466;19.024;2023-11-19T14:26:40;23.75;;;13.45;;
42430;SDS011;71905;47.466;19.024;2023-11-19T14:29:08;19.27;;;13.85;;
42430;SDS011;71905;47.466;19.024;2023-11-19T14:31:36;20.05;;;13.45;;
42430;SDS011;71905;47.466;19.024;2023-11-19T14:34:04;22.63;;;15.05;;